Time;durP1;ratioP1;P1;durP2;ratioP2;P2;SDS_P1;SDS_P2;PMS_P1;PMS_P2;Temp;Humidity;BMP_temperature;BMP_pressure;BME280_temperature;BME280_humidity;BME280_pressure;Samples;Min_cycle;Max_cycle;Signal;HPM_P1;HPM_P2
2022/05/19 00:01:01;;;;;;;7.38;3.30;;;;;;;;;;5077024;28;20033;-84
2022/05/19 00:03:30;;;;;;;9.88;3.25;;;;;;;;;;5088377;28;20025;-82
2022/05/19 00:05:58;;;;;;;7.90;3.33;;;;;;;;;;5057627;28;20433;-80
2022/05/19 00:08:24;;;;;;;8.05;3.20;;;;;;;;;;5062524;28;20078;-80
2022/05/19 00:10:50;;;;;;;8.43;3.40;;;;;;;;;;5090420;28;20032;-80
2022/05/19 00:13:15;;;;;;;7.35;2.97;;;;;;;;;;5071308;28;20518;-81
2022/05/19 00:15:41;;;;;;;7.70;2.90;;;;;;;;;;5068634;28;20047;-79
2022/05/19 00:18:06;;;;;;;5.75;3.20;;;;;;;;;;5058764;28;20570;-80
2022/05/19 00:20:32;;;;;;;5.43;3.10;;;;;;;;;;5086492;28;20081;-83
2022/05/19 00:22:58;;;;;;;6.82;2.85;;;;;;;;;;5067910;28;20033;-83
2022/05/19 00:25:23;;;;;;;5.30;3.05;;;;;;;;;;5088439;28;20017;-81
2022/05/19 00:27:48;;;;;;;6.43;2.63;;;;;;;;;;5073669;28;20017;-81
2022/05/19 00:30:14;;;;;;;6.32;2.78;;;;;;;;;;5085827;28;20027;-81
2022/05/19 00:32:39;;;;;;;8.93;3.30;;;;;;;;;;5078412;28;20029;-81
2022/05/19 00:35:05;;;;;;;6.72;3.30;;;;;;;;;;5164279;23;20076;-79
2022/05/19 00:37:34;;;;;;;5.25;3.13;;;;;;;;;;5660558;22;20091;-82
2022/05/19 00:40:00;;;;;;;4.95;3.17;;;;;;;;;;5079336;23;20554;-81
2022/05/19 00:42:44;;;;;;;7.03;3.30;;;;;;;;;;5064531;28;20020;-81
2022/05/19 00:45:12;;;;;;;7.25;3.20;;;;;;;;;;5062481;28;20057;-81
2022/05/19 00:47:39;;;;;;;5.00;3.08;;;;;;;;;;5054989;28;20023;-81
2022/05/19 00:50:07;;;;;;;7.23;2.90;;;;;;;;;;5042533;28;20068;-81
2022/05/19 00:52:35;;;;;;;4.75;2.85;;;;;;;;;;5072599;28;20352;-81
2022/05/19 00:55:01;;;;;;;;;;;;;;;;;;5052573;28;20060;-81
2022/05/19 00:57:31;;;;;;;7.25;3.42;;;;;;;;;;5056730;28;19909;-80
2022/05/19 01:00:01;;;;;;;7.32;3.50;;;;;;;;;;5054101;28;20041;-81
2022/05/19 01:02:30;;;;;;;8.10;3.13;;;;;;;;;;5053476;28;20025;-80
2022/05/19 01:04:56;;;;;;;10.43;3.40;;;;;;;;;;5033622;28;20021;-80
2022/05/19 01:07:25;;;;;;;13.50;3.75;;;;;;;;;;5060656;28;20041;-80
2022/05/19 01:09:52;;;;;;;5.38;3.03;;;;;;;;;;5058497;28;20029;-80
2022/05/19 01:12:23;;;;;;;9.05;3.53;;;;;;;;;;5040420;28;20091;-80
2022/05/19 01:14:49;;;;;;;7.72;3.33;;;;;;;;;;5048340;28;20374;-81
2022/05/19 01:17:14;;;;;;;5.05;3.17;;;;;;;;;;5053454;28;20021;-80
2022/05/19 01:19:48;;;;;;;9.48;3.72;;;;;;;;;;5023702;28;20032;-80
2022/05/19 01:22:22;;;;;;;5.20;3.30;;;;;;;;;;5038703;28;20021;-80
2022/05/19 01:25:08;;;;;;;6.15;3.35;;;;;;;;;;5057039;28;20100;-80
2022/05/19 01:27:33;;;;;;;9.38;3.83;;;;;;;;;;5057684;28;20005;-80
2022/05/19 01:30:01;;;;;;;6.13;3.60;;;;;;;;;;5031241;28;20056;-80
2022/05/19 01:32:28;;;;;;;5.95;3.10;;;;;;;;;;5033951;28;20032;-80
2022/05/19 01:34:53;;;;;;;6.72;3.75;;;;;;;;;;5031555;28;20478;-80
2022/05/19 01:37:19;;;;;;;5.85;3.58;;;;;;;;;;5052243;28;20032;-79
2022/05/19 01:40:34;;;;;;;6.43;3.53;;;;;;;;;;5043507;28;20033;-80
2022/05/19 01:43:09;;;;;;;8.10;3.33;;;;;;;;;;5006309;28;20121;-80
2022/05/19 01:45:45;;;;;;;7.43;3.63;;;;;;;;;;4981257;28;20076;-81
2022/05/19 01:48:10;;;;;;;5.80;3.42;;;;;;;;;;5017644;28;20033;-80
2022/05/19 01:50:36;;;;;;;7.90;3.90;;;;;;;;;;5051920;28;20031;-81
2022/05/19 01:53:15;;;;;;;5.28;3.35;;;;;;;;;;5052231;28;20013;-81
2022/05/19 01:55:46;;;;;;;6.78;3.65;;;;;;;;;;5050662;28;20036;-81
2022/05/19 01:58:15;;;;;;;7.85;3.30;;;;;;;;;;5046428;28;20025;-81
2022/05/19 02:00:41;;;;;;;9.55;4.10;;;;;;;;;;5041132;28;20044;-81
2022/05/19 02:03:18;;;;;;;7.68;3.70;;;;;;;;;;5046762;28;20377;-80
2022/05/19 02:05:51;;;;;;;7.70;3.72;;;;;;;;;;5045422;28;20124;-81
2022/05/19 02:08:22;;;;;;;9.95;3.28;;;;;;;;;;5047118;28;20072;-80
2022/05/19 02:10:49;;;;;;;8.52;3.42;;;;;;;;;;5047792;28;20029;-81
2022/05/19 02:13:15;;;;;;;9.35;3.08;;;;;;;;;;5051459;28;20025;-81
2022/05/19 02:15:43;;;;;;;5.70;3.45;;;;;;;;;;5051589;28;20029;-80
2022/05/19 02:18:08;;;;;;;7.68;3.67;;;;;;;;;;5015698;28;20030;-81
2022/05/19 02:20:35;;;;;;;5.88;3.40;;;;;;;;;;5047569;28;20481;-81
2022/05/19 02:23:01;;;;;;;6.30;3.20;;;;;;;;;;5030387;28;20108;-80
2022/05/19 02:25:33;;;;;;;11.30;3.65;;;;;;;;;;5031552;28;20561;-80
2022/05/19 02:28:04;;;;;;;6.63;3.38;;;;;;;;;;5051301;28;20021;-81
2022/05/19 02:30:35;;;;;;;6.15;3.25;;;;;;;;;;5048667;28;20480;-81
2022/05/19 02:33:00;;;;;;;9.25;3.65;;;;;;;;;;5034411;28;20511;-81
2022/05/19 02:35:26;;;;;;;8.68;3.15;;;;;;;;;;5038636;28;20033;-81
2022/05/19 02:37:52;;;;;;;8.15;3.30;;;;;;;;;;5047408;28;20086;-81
2022/05/19 02:40:25;;;;;;;6.53;3.30;;;;;;;;;;5059307;28;20560;-80
2022/05/19 02:42:50;;;;;;;7.32;3.33;;;;;;;;;;5060874;28;20028;-80
2022/05/19 02:45:16;;;;;;;7.28;3.60;;;;;;;;;;5058107;28;20025;-81
2022/05/19 02:47:42;;;;;;;9.73;4.10;;;;;;;;;;5060845;28;20025;-81
2022/05/19 02:50:08;;;;;;;7.53;3.38;;;;;;;;;;5071837;28;20484;-81
2022/05/19 02:52:34;;;;;;;6.82;3.28;;;;;;;;;;5056986;28;20056;-80
2022/05/19 02:54:59;;;;;;;8.00;3.50;;;;;;;;;;5053669;28;20079;-80
2022/05/19 02:57:24;;;;;;;6.47;3.30;;;;;;;;;;5067229;28;20285;-80
2022/05/19 02:59:50;;;;;;;5.85;3.30;;;;;;;;;;5054027;28;20530;-81
2022/05/19 03:02:16;;;;;;;5.97;3.20;;;;;;;;;;5057517;28;20028;-81
2022/05/19 03:04:41;;;;;;;6.60;3.65;;;;;;;;;;5068681;28;20396;-81
2022/05/19 03:07:07;;;;;;;5.68;2.88;;;;;;;;;;5057381;28;20427;-80
2022/05/19 03:09:33;;;;;;;12.05;3.38;;;;;;;;;;5054110;28;20032;-80
2022/05/19 03:11:58;;;;;;;8.18;3.50;;;;;;;;;;5071500;28;20032;-81
2022/05/19 03:14:24;;;;;;;6.05;3.33;;;;;;;;;;5058401;28;20028;-81
2022/05/19 03:16:50;;;;;;;12.48;3.67;;;;;;;;;;5053788;28;20041;-81
2022/05/19 03:19:16;;;;;;;5.80;3.05;;;;;;;;;;5065260;28;20475;-80
2022/05/19 03:21:42;;;;;;;6.03;3.05;;;;;;;;;;5060000;28;20071;-80
2022/05/19 03:24:08;;;;;;;7.05;3.60;;;;;;;;;;5054628;28;20480;-81
2022/05/19 03:26:33;;;;;;;7.50;3.60;;;;;;;;;;5058151;28;20024;-80
2022/05/19 03:28:59;;;;;;;6.20;3.13;;;;;;;;;;5065661;28;20116;-81
2022/05/19 03:31:24;;;;;;;8.07;3.00;;;;;;;;;;5053194;28;20031;-80
2022/05/19 03:33:50;;;;;;;9.88;3.50;;;;;;;;;;5068311;28;20043;-81
2022/05/19 03:36:16;;;;;;;10.43;3.35;;;;;;;;;;5055771;28;20399;-80
2022/05/19 03:38:42;;;;;;;6.15;3.17;;;;;;;;;;5068468;28;20061;-81
2022/05/19 03:41:08;;;;;;;6.78;3.60;;;;;;;;;;5056574;28;20121;-79
2022/05/19 03:43:33;;;;;;;8.27;3.40;;;;;;;;;;5059475;28;20602;-79
2022/05/19 03:46:00;;;;;;;7.10;3.13;;;;;;;;;;5053050;28;20565;-80
2022/05/19 03:48:25;;;;;;;5.57;3.33;;;;;;;;;;5039491;28;20029;-80
2022/05/19 03:50:51;;;;;;;7.93;3.33;;;;;;;;;;5074288;28;20379;-81
2022/05/19 03:53:16;;;;;;;6.43;3.22;;;;;;;;;;5052062;28;20039;-81
2022/05/19 03:55:42;;;;;;;5.35;3.00;;;;;;;;;;5068695;28;20376;-80
2022/05/19 03:58:07;;;;;;;5.72;2.90;;;;;;;;;;5057479;28;20476;-80
2022/05/19 04:00:33;;;;;;;5.10;3.25;;;;;;;;;;5052660;28;20032;-80
2022/05/19 04:02:59;;;;;;;8.93;3.20;;;;;;;;;;5061947;28;20115;-80
2022/05/19 04:05:28;;;;;;;6.35;2.95;;;;;;;;;;5036055;28;20444;-80
2022/05/19 04:07:54;;;;;;;8.13;3.05;;;;;;;;;;5070030;28;20422;-80
2022/05/19 04:10:20;;;;;;;6.03;3.25;;;;;;;;;;5055845;28;20124;-80
2022/05/19 04:12:45;;;;;;;6.75;2.95;;;;;;;;;;5067263;28;20032;-81
2022/05/19 04:15:11;;;;;;;11.52;3.67;;;;;;;;;;5064912;28;20024;-80
2022/05/19 04:17:37;;;;;;;6.15;3.15;;;;;;;;;;5039256;28;20033;-80
2022/05/19 04:20:04;;;;;;;6.60;3.13;;;;;;;;;;5053145;28;20082;-82
2022/05/19 04:22:30;;;;;;;7.22;3.00;;;;;;;;;;5052217;28;20040;-81
2022/05/19 04:24:55;;;;;;;6.60;3.58;;;;;;;;;;5061439;28;20403;-81
2022/05/19 04:27:21;;;;;;;6.22;3.10;;;;;;;;;;5068832;28;20025;-81
2022/05/19 04:29:49;;;;;;;10.00;2.72;;;;;;;;;;5067523;28;20029;-81
2022/05/19 04:32:16;;;;;;;7.35;2.70;;;;;;;;;;5056494;28;20028;-81
2022/05/19 04:34:41;;;;;;;4.57;3.25;;;;;;;;;;5051388;28;20082;-81
2022/05/19 04:37:08;;;;;;;7.72;2.88;;;;;;;;;;5055258;28;20036;-81
2022/05/19 04:39:34;;;;;;;5.97;3.10;;;;;;;;;;5035080;28;20039;-82
2022/05/19 04:42:04;;;;;;;6.65;2.63;;;;;;;;;;5054859;28;20039;-79
2022/05/19 04:44:29;;;;;;;7.93;3.03;;;;;;;;;;5054547;28;20039;-79
2022/05/19 04:46:55;;;;;;;11.38;3.22;;;;;;;;;;5051998;28;20025;-79
2022/05/19 04:49:20;;;;;;;10.50;3.50;;;;;;;;;;5055382;28;20029;-81
2022/05/19 04:51:45;;;;;;;6.68;2.40;;;;;;;;;;5058049;28;20029;-81
2022/05/19 04:54:11;;;;;;;7.13;2.50;;;;;;;;;;5069202;28;20028;-80
2022/05/19 04:56:39;;;;;;;8.82;2.90;;;;;;;;;;5038660;28;20028;-80
2022/05/19 04:59:07;;;;;;;6.22;2.47;;;;;;;;;;5051650;28;20029;-81
2022/05/19 05:01:33;;;;;;;4.35;2.55;;;;;;;;;;5067905;28;20036;-81
2022/05/19 05:03:58;;;;;;;6.65;3.00;;;;;;;;;;5069273;28;20033;-80
2022/05/19 05:06:24;;;;;;;4.15;2.50;;;;;;;;;;5069295;28;20052;-81
2022/05/19 05:08:49;;;;;;;6.25;2.67;;;;;;;;;;5062884;28;20020;-80
2022/05/19 05:11:15;;;;;;;8.32;2.72;;;;;;;;;;5065847;28;20029;-79
2022/05/19 05:13:40;;;;;;;7.03;2.92;;;;;;;;;;5072099;28;20028;-82
2022/05/19 05:16:06;;;;;;;5.43;2.67;;;;;;;;;;5054028;28;20032;-81
2022/05/19 05:18:31;;;;;;;5.70;2.65;;;;;;;;;;5056687;28;20025;-80
2022/05/19 05:20:57;;;;;;;6.47;2.75;;;;;;;;;;5051320;28;20480;-81
2022/05/19 05:23:22;;;;;;;4.53;2.95;;;;;;;;;;5063556;28;20368;-80
2022/05/19 05:25:48;;;;;;;5.47;2.80;;;;;;;;;;5051143;28;20476;-81
2022/05/19 05:28:13;;;;;;;8.05;2.83;;;;;;;;;;5068064;28;20029;-81
2022/05/19 05:30:38;;;;;;;7.18;2.92;;;;;;;;;;5054881;28;20391;-80
2022/05/19 05:33:06;;;;;;;5.65;2.63;;;;;;;;;;5050640;28;20166;-81
2022/05/19 05:35:33;;;;;;;4.80;2.58;;;;;;;;;;5054269;28;20028;-81
2022/05/19 05:37:58;;;;;;;9.50;2.75;;;;;;;;;;5018397;28;20033;-80
2022/05/19 05:40:26;;;;;;;7.38;2.97;;;;;;;;;;5036935;28;20115;-82
2022/05/19 05:42:52;;;;;;;5.18;2.90;;;;;;;;;;5064422;28;20028;-81
2022/05/19 05:45:18;;;;;;;5.05;2.25;;;;;;;;;;5041377;28;20032;-80
2022/05/19 05:47:43;;;;;;;5.97;2.85;;;;;;;;;;5044159;28;20391;-78
2022/05/19 05:50:09;;;;;;;5.10;2.45;;;;;;;;;;5058399;28;20099;-81
2022/05/19 05:52:35;;;;;;;5.40;2.60;;;;;;;;;;5073604;28;20028;-80
2022/05/19 05:55:00;;;;;;;15.45;2.90;;;;;;;;;;5064474;28;20186;-80
2022/05/19 05:57:27;;;;;;;5.65;2.63;;;;;;;;;;5037038;28;20508;-80
2022/05/19 05:59:53;;;;;;;4.47;2.53;;;;;;;;;;5069267;28;20028;-80
2022/05/19 06:02:18;;;;;;;6.93;2.65;;;;;;;;;;5071068;28;20476;-81
2022/05/19 06:04:44;;;;;;;7.50;2.42;;;;;;;;;;5065944;28;20036;-80
2022/05/19 06:07:10;;;;;;;6.13;2.60;;;;;;;;;;5061115;28;20028;-81
2022/05/19 06:09:36;;;;;;;5.10;2.50;;;;;;;;;;5059868;28;20161;-80
2022/05/19 06:12:02;;;;;;;5.50;2.10;;;;;;;;;;5067953;28;20029;-81
2022/05/19 06:14:27;;;;;;;4.13;2.42;;;;;;;;;;5070307;28;20525;-80
2022/05/19 06:16:53;;;;;;;14.18;2.67;;;;;;;;;;5050171;28;20460;-81
2022/05/19 06:19:22;;;;;;;4.78;2.20;;;;;;;;;;5055765;28;20040;-82
2022/05/19 06:21:48;;;;;;;10.38;3.00;;;;;;;;;;5051700;28;20528;-81
2022/05/19 06:24:13;;;;;;;7.18;2.92;;;;;;;;;;5069507;28;20055;-81
2022/05/19 06:26:39;;;;;;;10.68;2.60;;;;;;;;;;5057339;28;20025;-81
2022/05/19 06:29:06;;;;;;;11.70;2.97;;;;;;;;;;5034052;28;20477;-85
2022/05/19 06:31:32;;;;;;;4.97;2.33;;;;;;;;;;5065200;28;20035;-81
2022/05/19 06:33:58;;;;;;;8.73;3.30;;;;;;;;;;5055877;28;20400;-80
2022/05/19 06:36:24;;;;;;;6.97;2.47;;;;;;;;;;5059447;28;20031;-82
2022/05/19 06:38:49;;;;;;;7.82;2.42;;;;;;;;;;5064372;28;20458;-80
2022/05/19 06:44:00;;;;;;;7.45;2.60;;;;;;;;;;5057478;28;20036;-82
2022/05/19 06:46:26;;;;;;;7.72;2.70;;;;;;;;;;5053734;28;20022;-81
2022/05/19 06:48:52;;;;;;;9.05;2.72;;;;;;;;;;5058909;28;20029;-80
2022/05/19 06:51:18;;;;;;;6.10;2.78;;;;;;;;;;5070133;28;20380;-81
2022/05/19 06:53:43;;;;;;;8.85;3.60;;;;;;;;;;5041218;28;20025;-81
2022/05/19 06:56:10;;;;;;;7.65;2.78;;;;;;;;;;5072346;28;20499;-81
2022/05/19 06:58:36;;;;;;;11.00;2.75;;;;;;;;;;5036656;28;20059;-81
2022/05/19 07:01:02;;;;;;;5.07;2.78;;;;;;;;;;5054814;28;20029;-82
2022/05/19 07:03:28;;;;;;;7.50;2.58;;;;;;;;;;5053028;28;20515;-82
2022/05/19 07:05:53;;;;;;;7.18;2.50;;;;;;;;;;5043609;22;20045;-75
2022/05/19 07:08:19;;;;;;;8.15;2.50;;;;;;;;;;5026927;28;20033;-77
2022/05/19 07:10:45;;;;;;;6.55;2.60;;;;;;;;;;4980050;28;20105;-76
2022/05/19 07:13:12;;;;;;;9.52;2.50;;;;;;;;;;5031414;28;20030;-76
2022/05/19 07:15:37;;;;;;;4.95;2.40;;;;;;;;;;5027116;28;20504;-75
2022/05/19 07:18:03;;;;;;;3.72;2.40;;;;;;;;;;5028159;28;20029;-77
2022/05/19 07:20:44;;;;;;;10.45;2.65;;;;;;;;;;5030404;28;20032;-76
2022/05/19 07:23:15;;;;;;;5.40;2.28;;;;;;;;;;5031348;28;20127;-76
2022/05/19 07:25:41;;;;;;;6.15;2.65;;;;;;;;;;5032759;28;20061;-76
2022/05/19 07:28:07;;;;;;;6.32;2.60;;;;;;;;;;5031096;28;20052;-76
2022/05/19 07:30:32;;;;;;;6.55;2.20;;;;;;;;;;5035591;28;20396;-77
2022/05/19 07:33:00;;;;;;;13.13;3.05;;;;;;;;;;5036432;28;20037;-76
2022/05/19 07:35:25;;;;;;;6.65;2.10;;;;;;;;;;5043865;28;20025;-76
2022/05/19 07:37:51;;;;;;;10.57;2.10;;;;;;;;;;5033190;28;20056;-76
2022/05/19 07:40:16;;;;;;;5.63;2.10;;;;;;;;;;5035450;28;20040;-76
2022/05/19 07:42:42;;;;;;;7.05;2.60;;;;;;;;;;5047634;28;20031;-74
2022/05/19 07:45:08;;;;;;;5.68;2.05;;;;;;;;;;5048049;28;20025;-76
2022/05/19 07:47:34;;;;;;;6.22;2.15;;;;;;;;;;5049282;28;20048;-76
2022/05/19 07:49:59;;;;;;;10.15;2.10;;;;;;;;;;5049286;28;20030;-77
2022/05/19 07:52:27;;;;;;;6.25;2.10;;;;;;;;;;5053457;28;20068;-76
2022/05/19 07:54:55;;;;;;;7.72;2.10;;;;;;;;;;5053286;28;20056;-76
2022/05/19 07:57:22;;;;;;;6.65;2.28;;;;;;;;;;5053956;28;20091;-76
2022/05/19 07:59:47;;;;;;;8.68;2.47;;;;;;;;;;5053273;28;20089;-76
2022/05/19 08:02:13;;;;;;;7.75;2.10;;;;;;;;;;5050282;28;20045;-75
2022/05/19 08:04:39;;;;;;;10.32;2.00;;;;;;;;;;5049363;28;20029;-77
2022/05/19 08:07:07;;;;;;;7.55;2.10;;;;;;;;;;5072236;28;20080;-75
2022/05/19 08:15:34;;;;;;;5.15;2.30;;;;;;;;;;5071021;28;20515;-76
2022/05/19 08:17:48;;;;;;;3.90;2.13;;;;;;;;;;5066799;28;20032;-75
2022/05/19 08:20:18;;;;;;;10.75;2.10;;;;;;;;;;5049196;28;20029;-75
2022/05/19 08:22:44;;;;;;;10.75;2.20;;;;;;;;;;5065707;28;20029;-76
2022/05/19 08:25:09;;;;;;;6.50;2.20;;;;;;;;;;5028807;28;20093;-75
2022/05/19 08:27:35;;;;;;;9.05;2.17;;;;;;;;;;5069457;28;20064;-75
2022/05/19 08:30:01;;;;;;;7.05;2.58;;;;;;;;;;5052051;28;20037;-75
2022/05/19 08:32:26;;;;;;;7.72;1.77;;;;;;;;;;5066943;28;20040;-77
2022/05/19 08:34:52;;;;;;;5.38;1.90;;;;;;;;;;5050304;28;20033;-78
2022/05/19 08:37:19;;;;;;;6.97;1.50;;;;;;;;;;5064633;28;20111;-77
2022/05/19 08:39:44;;;;;;;5.68;2.10;;;;;;;;;;5068223;28;20036;-76
2022/05/19 08:42:11;;;;;;;4.68;1.42;;;;;;;;;;5066599;28;20033;-75
2022/05/19 08:44:38;;;;;;;5.05;1.85;;;;;;;;;;5050148;28;20056;-78
2022/05/19 08:47:05;;;;;;;7.07;1.73;;;;;;;;;;5039881;28;20021;-79
2022/05/19 08:49:42;;;;;;;3.45;1.90;;;;;;;;;;5070769;28;20033;-79
2022/05/19 08:52:09;;;;;;;5.07;1.98;;;;;;;;;;5048904;28;20091;-77
2022/05/19 08:54:36;;;;;;;3.65;1.60;;;;;;;;;;5046889;28;20090;-79
2022/05/19 08:57:06;;;;;;;7.50;1.75;;;;;;;;;;5062954;28;20479;-77
2022/05/19 08:59:40;;;;;;;6.20;1.90;;;;;;;;;;5068397;28;20036;-78
2022/05/19 09:02:09;;;;;;;3.70;1.83;;;;;;;;;;5054426;28;20036;-76
2022/05/19 09:04:55;;;;;;;10.38;1.85;;;;;;;;;;5052589;28;20525;-76
2022/05/19 09:10:17;;;;;;;3.83;1.55;;;;;;;;;;5055397;28;20028;-76
2022/05/19 09:12:44;;;;;;;4.95;1.70;;;;;;;;;;5072810;28;20025;-77
2022/05/19 09:15:10;;;;;;;4.53;1.83;;;;;;;;;;5073063;28;20033;-76
2022/05/19 09:17:42;;;;;;;8.68;2.05;;;;;;;;;;5072984;28;20029;-77
2022/05/19 09:20:09;;;;;;;5.50;1.65;;;;;;;;;;5071065;28;20033;-76
2022/05/19 09:22:35;;;;;;;9.10;2.83;;;;;;;;;;5072720;28;20013;-76
2022/05/19 09:25:03;;;;;;;2.75;1.55;;;;;;;;;;5071856;28;20152;-77
2022/05/19 09:27:29;;;;;;;8.15;1.92;;;;;;;;;;5067787;28;20048;-77
2022/05/19 09:29:55;;;;;;;7.82;1.88;;;;;;;;;;5067726;28;20033;-77
2022/05/19 09:32:34;;;;;;;9.07;2.00;;;;;;;;;;5052951;28;20100;-77
2022/05/19 09:35:11;;;;;;;10.57;2.08;;;;;;;;;;5072341;28;20025;-77
2022/05/19 09:37:43;;;;;;;5.60;1.50;;;;;;;;;;5054450;28;20056;-76
2022/05/19 09:40:08;;;;;;;3.28;1.63;;;;;;;;;;5067885;28;20064;-75
2022/05/19 09:42:35;;;;;;;7.63;1.73;;;;;;;;;;5072222;28;20029;-76
2022/05/19 09:45:01;;;;;;;7.82;1.60;;;;;;;;;;5055603;28;20089;-74
2022/05/19 09:47:33;;;;;;;6.65;2.10;;;;;;;;;;5043903;28;20029;-77
2022/05/19 09:50:17;;;;;;;4.20;1.90;;;;;;;;;;5048485;28;20086;-74
2022/05/19 09:52:43;;;;;;;4.95;1.70;;;;;;;;;;5034090;28;20555;-76
2022/05/19 09:55:10;;;;;;;8.15;1.70;;;;;;;;;;5030839;28;20060;-76
2022/05/19 09:57:42;;;;;;;4.65;2.15;;;;;;;;;;5045501;28;20035;-75
2022/05/19 10:00:19;;;;;;;6.03;1.67;;;;;;;;;;5033606;28;20029;-75
2022/05/19 10:02:48;;;;;;;5.80;1.50;;;;;;;;;;5017035;28;20446;-75
2022/05/19 10:05:23;;;;;;;5.90;1.50;;;;;;;;;;5034446;28;20269;-75
2022/05/19 10:07:49;;;;;;;9.48;1.55;;;;;;;;;;5051453;28;20021;-76
2022/05/19 10:10:17;;;;;;;8.63;1.90;;;;;;;;;;5051387;28;20029;-76
2022/05/19 10:12:44;;;;;;;7.95;2.13;;;;;;;;;;5033405;28;20029;-77
2022/05/19 10:15:11;;;;;;;3.47;1.40;;;;;;;;;;5051399;28;20024;-74
2022/05/19 10:17:43;;;;;;;6.60;1.85;;;;;;;;;;5033719;28;20032;-76
2022/05/19 10:20:16;;;;;;;8.00;1.58;;;;;;;;;;5050003;28;20040;-77
2022/05/19 10:22:48;;;;;;;6.07;1.50;;;;;;;;;;5050814;28;20017;-74
2022/05/19 10:25:22;;;;;;;6.05;2.22;;;;;;;;;;5012942;28;20044;-76
2022/05/19 10:31:04;;;;;;;3.65;1.40;;;;;;;;;;5020436;28;20436;-76
2022/05/19 10:33:45;;;;;;;14.93;1.67;;;;;;;;;;5033503;28;20045;-76
2022/05/19 10:36:18;;;;;;;5.85;1.65;;;;;;;;;;5033867;28;20040;-76
2022/05/19 10:39:02;;;;;;;3.95;1.63;;;;;;;;;;5051206;28;20031;-77
2022/05/19 10:41:47;;;;;;;3.58;1.65;;;;;;;;;;5017370;28;20057;-77
2022/05/19 10:44:21;;;;;;;5.03;1.90;;;;;;;;;;5033765;28;20488;-75
2022/05/19 10:47:22;;;;;;;4.40;1.75;;;;;;;;;;5033019;28;20412;-76
2022/05/19 10:50:07;;;;;;;4.18;1.40;;;;;;;;;;4935268;29;20141;-76
2022/05/19 10:52:36;;;;;;;4.75;1.42;;;;;;;;;;5029085;28;20488;-76
2022/05/19 10:55:02;;;;;;;4.00;1.35;;;;;;;;;;5050473;28;20094;-74
2022/05/19 10:57:33;;;;;;;9.95;1.63;;;;;;;;;;5050448;28;20029;-76
2022/05/19 11:00:06;;;;;;;5.07;2.58;;;;;;;;;;5033013;28;20128;-77
2022/05/19 11:02:51;;;;;;;5.03;2.03;;;;;;;;;;5051159;28;20021;-75
2022/05/19 11:05:33;;;;;;;4.55;1.77;;;;;;;;;;5053939;28;20025;-73
2022/05/19 11:08:17;;;;;;;3.50;1.63;;;;;;;;;;5054924;28;20036;-76
2022/05/19 11:10:54;;;;;;;3.45;1.48;;;;;;;;;;5055775;28;20036;-76
2022/05/19 11:13:31;;;;;;;2.97;1.50;;;;;;;;;;5036732;28;20036;-74
2022/05/19 11:16:06;;;;;;;4.45;1.58;;;;;;;;;;5054850;28;20032;-76
2022/05/19 11:18:48;;;;;;;4.90;1.77;;;;;;;;;;5022087;28;20029;-76
2022/05/19 11:21:16;;;;;;;4.28;1.77;;;;;;;;;;5036969;28;20025;-76
2022/05/19 11:23:50;;;;;;;6.88;1.80;;;;;;;;;;5037135;28;20468;-75
2022/05/19 11:26:26;;;;;;;3.85;1.50;;;;;;;;;;5020497;28;20479;-75
2022/05/19 11:29:10;;;;;;;3.65;1.58;;;;;;;;;;5055672;28;20545;-76
2022/05/19 11:31:45;;;;;;;4.18;1.42;;;;;;;;;;5054729;28;20071;-77
2022/05/19 11:34:30;;;;;;;6.00;1.58;;;;;;;;;;5054291;28;20037;-77
2022/05/19 11:37:03;;;;;;;4.57;1.80;;;;;;;;;;5055380;28;20064;-75
2022/05/19 11:39:29;;;;;;;4.30;1.90;;;;;;;;;;5055660;28;20037;-75
2022/05/19 11:41:57;;;;;;;3.65;1.45;;;;;;;;;;5037099;28;20052;-77
2022/05/19 11:44:22;;;;;;;5.60;1.40;;;;;;;;;;5054036;28;20048;-76
2022/05/19 11:47:11;;;;;;;8.85;2.55;;;;;;;;;;5036760;28;20425;-76
2022/05/19 11:55:37;;;;;;;4.88;1.50;;;;;;;;;;5055214;28;20056;-77
2022/05/19 11:58:09;;;;;;;4.07;1.73;;;;;;;;;;5037102;28;20029;-75
2022/05/19 12:00:57;;;;;;;4.35;1.88;;;;;;;;;;5045841;28;20104;-77
2022/05/19 12:03:36;;;;;;;2.95;1.40;;;;;;;;;;5059933;28;20021;-76
2022/05/19 12:06:16;;;;;;;9.15;1.63;;;;;;;;;;5062089;28;20032;-77
2022/05/19 12:08:59;;;;;;;7.53;2.05;;;;;;;;;;5062837;28;20044;-77
2022/05/19 12:11:29;;;;;;;4.15;1.52;;;;;;;;;;5054287;28;20040;-77
2022/05/19 12:14:07;;;;;;;3.03;1.60;;;;;;;;;;5054601;28;20017;-75
2022/05/19 12:16:49;;;;;;;3.95;1.65;;;;;;;;;;5035505;28;20021;-77
2022/05/19 12:19:33;;;;;;;5.50;3.25;;;;;;;;;;5035669;28;20025;-76
2022/05/19 12:21:59;;;;;;;8.63;1.65;;;;;;;;;;5035751;28;20025;-74
2022/05/19 12:24:46;;;;;;;2.40;1.13;;;;;;;;;;5053583;28;20021;-75
2022/05/19 12:27:23;;;;;;;4.20;1.58;;;;;;;;;;5008767;28;20037;-74
2022/05/19 12:29:59;;;;;;;2.87;1.27;;;;;;;;;;5048535;28;20033;-76
2022/05/19 12:32:34;;;;;;;5.13;1.70;;;;;;;;;;5052992;28;20499;-77
2022/05/19 12:35:04;;;;;;;3.80;1.40;;;;;;;;;;5035063;28;20553;-76
2022/05/19 12:37:36;;;;;;;5.78;1.58;;;;;;;;;;5053772;28;20534;-76
2022/05/19 12:40:17;;;;;;;3.63;1.58;;;;;;;;;;5052714;28;20033;-76
2022/05/19 12:42:43;;;;;;;4.35;1.60;;;;;;;;;;5052311;28;20103;-75
2022/05/19 12:45:19;;;;;;;5.20;1.30;;;;;;;;;;5018809;28;20041;-74
2022/05/19 12:47:59;;;;;;;3.88;1.20;;;;;;;;;;5053116;28;20056;-76
2022/05/19 12:50:46;;;;;;;5.60;1.15;;;;;;;;;;5015936;28;20051;-77
2022/05/19 12:53:35;;;;;;;7.28;1.63;;;;;;;;;;5023668;28;20048;-77
2022/05/19 12:56:00;;;;;;;4.45;1.50;;;;;;;;;;4995692;28;20183;-75
2022/05/19 12:58:44;;;;;;;7.50;1.67;;;;;;;;;;5018183;28;20071;-76
2022/05/19 13:01:13;;;;;;;3.05;1.30;;;;;;;;;;5052570;28;20108;-76
2022/05/19 13:03:40;;;;;;;7.32;1.50;;;;;;;;;;5052474;28;20029;-75
2022/05/19 13:06:09;;;;;;;3.83;1.23;;;;;;;;;;5047603;23;20041;-77
2022/05/19 13:08:37;;;;;;;4.93;1.38;;;;;;;;;;5030289;28;20028;-77
2022/05/19 13:11:09;;;;;;;3.80;1.48;;;;;;;;;;5043428;28;20060;-76
2022/05/19 13:13:37;;;;;;;11.45;2.30;;;;;;;;;;5040780;28;20029;-76
2022/05/19 13:16:09;;;;;;;6.63;1.70;;;;;;;;;;5050725;28;20037;-76
2022/05/19 13:18:37;;;;;;;5.63;1.95;;;;;;;;;;5057250;28;20052;-76
2022/05/19 13:21:07;;;;;;;3.90;1.50;;;;;;;;;;5062965;28;20039;-76
2022/05/19 13:23:37;;;;;;;4.32;1.63;;;;;;;;;;5064516;28;20052;-76
2022/05/19 13:26:32;;;;;;;3.03;1.25;;;;;;;;;;5020485;28;20484;-76
2022/05/19 13:31:51;;;;;;;6.18;1.35;;;;;;;;;;5031859;28;20028;-77
2022/05/19 13:34:17;;;;;;;2.67;1.30;;;;;;;;;;5036774;28;20039;-77
2022/05/19 13:36:50;;;;;;;3.35;1.20;;;;;;;;;;5047179;28;20035;-77
2022/05/19 13:39:17;;;;;;;7.35;1.38;;;;;;;;;;5028080;28;20032;-77
2022/05/19 13:41:49;;;;;;;4.68;1.25;;;;;;;;;;5039036;28;20511;-78
2022/05/19 13:44:17;;;;;;;5.38;1.70;;;;;;;;;;5033136;28;20036;-76
2022/05/19 13:46:43;;;;;;;2.40;1.20;;;;;;;;;;5023422;28;20484;-76
2022/05/19 13:49:10;;;;;;;2.45;1.08;;;;;;;;;;5027274;28;20028;-77
2022/05/19 13:51:47;;;;;;;3.88;1.40;;;;;;;;;;5046890;28;20024;-78
2022/05/19 13:54:25;;;;;;;4.03;1.33;;;;;;;;;;5036530;28;20047;-77
2022/05/19 13:56:56;;;;;;;5.53;1.45;;;;;;;;;;5028971;28;20040;-77
2022/05/19 13:59:27;;;;;;;3.50;1.20;;;;;;;;;;5012262;28;20090;-77
2022/05/19 14:01:58;;;;;;;5.13;1.80;;;;;;;;;;5004119;28;20064;-77
2022/05/19 14:04:25;;;;;;;4.07;1.10;;;;;;;;;;5038067;28;20032;-77
2022/05/19 14:06:51;;;;;;;5.15;1.10;;;;;;;;;;5029343;28;20043;-77
2022/05/19 14:09:19;;;;;;;3.65;1.20;;;;;;;;;;5044141;28;20074;-77
2022/05/19 14:11:45;;;;;;;2.40;1.10;;;;;;;;;;5021856;28;20170;-77
2022/05/19 14:14:24;;;;;;;3.63;1.40;;;;;;;;;;5050420;28;20484;-77
2022/05/19 14:16:50;;;;;;;3.08;1.27;;;;;;;;;;5046162;28;20033;-77
2022/05/19 14:19:22;;;;;;;2.73;1.30;;;;;;;;;;5044084;28;20028;-77
2022/05/19 14:21:48;;;;;;;3.40;1.15;;;;;;;;;;5021237;28;20025;-77
2022/05/19 14:24:16;;;;;;;3.83;1.20;;;;;;;;;;5049183;28;20073;-77
2022/05/19 14:26:41;;;;;;;;;;;;;;;;;;5039539;28;20025;-77
2022/05/19 14:29:14;;;;;;;3.00;1.13;;;;;;;;;;5061512;28;19999;-76
2022/05/19 14:31:44;;;;;;;8.82;1.38;;;;;;;;;;5031042;28;20036;-78
2022/05/19 14:34:29;;;;;;;3.58;1.20;;;;;;;;;;5001773;28;20145;-76
2022/05/19 14:37:09;;;;;;;6.70;1.15;;;;;;;;;;5045209;28;20115;-76
2022/05/19 14:39:50;;;;;;;4.82;1.60;;;;;;;;;;5050014;28;20032;-77
2022/05/19 14:45:08;;;;;;;8.00;1.50;;;;;;;;;;5030977;28;20033;-76
2022/05/19 14:47:35;;;;;;;3.15;1.20;;;;;;;;;;5068177;28;20045;-77
2022/05/19 14:50:05;;;;;;;8.43;1.50;;;;;;;;;;5007527;28;20036;-77
2022/05/19 14:52:33;;;;;;;3.10;1.40;;;;;;;;;;5032356;28;20369;-77
2022/05/19 14:55:13;;;;;;;6.53;1.50;;;;;;;;;;5018326;28;20036;-78
2022/05/19 14:57:39;;;;;;;7.22;1.77;;;;;;;;;;5060876;28;20028;-77
2022/05/19 15:00:05;;;;;;;4.25;0.93;;;;;;;;;;5036660;28;20067;-77
2022/05/19 15:02:32;;;;;;;7.25;1.83;;;;;;;;;;5024683;28;20100;-76
2022/05/19 15:04:58;;;;;;;2.63;1.40;;;;;;;;;;5047721;28;20575;-78
2022/05/19 15:07:41;;;;;;;1.83;1.00;;;;;;;;;;5031884;28;20078;-77
2022/05/19 15:10:07;;;;;;;3.28;1.10;;;;;;;;;;5023641;28;20400;-76
2022/05/19 15:12:33;;;;;;;2.70;1.20;;;;;;;;;;5069037;28;20029;-76
2022/05/19 15:15:00;;;;;;;3.38;1.27;;;;;;;;;;5028460;28;20127;-78
2022/05/19 15:17:29;;;;;;;2.55;1.10;;;;;;;;;;5027689;28;20135;-77
2022/05/19 15:19:55;;;;;;;2.47;1.27;;;;;;;;;;5052392;28;20116;-76
2022/05/19 15:22:21;;;;;;;3.72;1.40;;;;;;;;;;5039532;28;20024;-77